createdAt,value
2022-10-23T00:02:56.754Z,11.91
2022-10-23T00:06:58.793Z,12.04
2022-10-23T00:11:00.857Z,12.19
2022-10-23T00:15:02.913Z,12.35
2022-10-23T00:19:05.871Z,12.41
2022-10-23T00:23:07.920Z,12.51
2022-10-23T00:27:10.044Z,12.58
2022-10-23T00:31:12.961Z,12.64
2022-10-23T00:35:15.872Z,12.66
2022-10-23T00:39:17.863Z,12.71
2022-10-23T00:43:24.019Z,12.73
2022-10-23T00:47:26.237Z,12.84
2022-10-23T00:51:33.140Z,12.87
2022-10-23T00:55:36.060Z,12.84
2022-10-23T00:59:38.114Z,12.81
2022-10-23T01:03:41.666Z,12.78
2022-10-23T01:07:50.810Z,12.78
2022-10-23T01:12:15.974Z,12.75
2022-10-23T01:16:26.881Z,12.69
2022-10-23T01:20:55.713Z,12.65
2022-10-23T01:25:15.681Z,12.64
2022-10-23T01:29:36.641Z,12.64
2022-10-23T01:33:48.152Z,12.65
2022-10-23T01:38:19.372Z,12.64
2022-10-23T01:42:28.254Z,12.62
2022-10-23T01:46:31.851Z,12.56
2022-10-23T01:50:35.628Z,12.50
2022-10-23T01:54:42.932Z,12.37
2022-10-23T01:58:48.215Z,12.32
2022-10-23T02:02:52.571Z,12.27
2022-10-23T02:06:56.600Z,12.21
2022-10-23T02:11:08.253Z,12.16
2022-10-23T02:15:12.191Z,12.17
2022-10-23T02:19:35.269Z,12.18
2022-10-23T02:23:59.537Z,12.15
2022-10-23T02:28:07.511Z,12.14
2022-10-23T02:32:20.469Z,12.08
2022-10-23T02:36:24.048Z,12.03
2022-10-23T02:40:40.983Z,11.96
2022-10-23T02:44:58.246Z,11.89
2022-10-23T02:49:13.792Z,11.85
2022-10-23T02:53:32.539Z,11.84
2022-10-23T02:57:44.768Z,11.79
2022-10-23T03:02:02.835Z,11.73
2022-10-23T03:06:06.509Z,11.67
2022-10-23T03:10:10.527Z,11.68
2022-10-23T03:14:13.492Z,11.71
2022-10-23T03:18:15.538Z,11.69
2022-10-23T03:22:22.365Z,11.66
2022-10-23T03:26:24.428Z,11.61
2022-10-23T03:30:26.741Z,11.65
2022-10-23T03:34:30.447Z,11.69
2022-10-23T03:38:32.505Z,11.72
2022-10-23T03:42:34.778Z,11.72
2022-10-23T03:46:36.869Z,11.65
2022-10-23T03:50:39.351Z,11.51
2022-10-23T03:54:41.389Z,11.42
2022-10-23T03:58:43.655Z,11.37
2022-10-23T04:02:46.061Z,11.38
2022-10-23T04:06:48.486Z,11.41
2022-10-23T04:10:51.053Z,11.44
2022-10-23T04:14:56.464Z,11.48
2022-10-23T04:18:58.460Z,11.51
2022-10-23T04:23:00.463Z,11.59
2022-10-23T04:27:02.656Z,11.72
2022-10-23T04:31:05.493Z,11.71
2022-10-23T04:35:08.804Z,11.72
2022-10-23T04:39:11.167Z,11.70
2022-10-23T04:43:13.208Z,11.63
2022-10-23T04:47:15.715Z,11.59
2022-10-23T04:51:29.431Z,11.54
2022-10-23T04:55:49.663Z,11.44
2022-10-23T04:59:57.926Z,11.36
2022-10-23T05:04:00.088Z,11.45
2022-10-23T05:08:02.212Z,11.56
2022-10-23T05:12:13.188Z,11.73
2022-10-23T05:16:42.142Z,11.84
2022-10-23T05:20:49.539Z,11.88
2022-10-23T05:24:53.262Z,11.96
2022-10-23T05:28:59.023Z,11.96
2022-10-23T05:33:03.620Z,11.96
2022-10-23T05:37:14.457Z,11.91
2022-10-23T05:41:17.273Z,11.91
2022-10-23T05:45:19.530Z,11.89
2022-10-23T05:50:00.031Z,11.94
2022-10-23T05:54:24.893Z,12.04
2022-10-23T05:58:49.898Z,12.12
2022-10-23T06:03:06.702Z,12.20
2022-10-23T06:07:16.200Z,12.28
2022-10-23T06:11:20.380Z,12.32
2022-10-23T06:15:31.513Z,12.36
2022-10-23T06:19:41.575Z,12.40
2022-10-23T06:23:45.082Z,12.45
2022-10-23T06:28:11.249Z,12.47
2022-10-23T06:32:13.560Z,12.49
2022-10-23T06:36:20.485Z,12.50
2022-10-23T06:40:23.264Z,12.54
2022-10-23T06:44:37.317Z,12.59
2022-10-23T06:48:44.973Z,12.65
2022-10-23T06:52:54.408Z,12.70
2022-10-23T06:56:57.431Z,12.75
2022-10-23T07:01:12.484Z,12.85
2022-10-23T07:05:17.743Z,12.95
2022-10-23T07:09:20.033Z,13.03
2022-10-23T07:13:27.740Z,13.13
2022-10-23T07:17:46.695Z,13.23
2022-10-23T07:21:48.864Z,13.32
2022-10-23T07:26:17.194Z,13.40
2022-10-23T07:30:19.535Z,13.49
2022-10-23T07:34:27.306Z,13.57
2022-10-23T07:38:47.179Z,13.67
2022-10-23T07:42:50.051Z,14.01
2022-10-23T07:46:53.525Z,14.37
2022-10-23T07:51:01.503Z,14.55
2022-10-23T07:55:04.093Z,14.45
2022-10-23T07:59:12.868Z,14.36
2022-10-23T08:03:15.652Z,14.31
2022-10-23T08:07:17.915Z,14.34
2022-10-23T08:11:27.880Z,14.35
2022-10-23T08:15:30.801Z,14.47
2022-10-23T08:19:39.778Z,14.58
2022-10-23T08:23:43.052Z,14.72
2022-10-23T08:27:45.514Z,14.88
2022-10-23T08:31:49.307Z,15.04
2022-10-23T08:36:05.452Z,15.20
2022-10-23T08:40:23.869Z,15.30
2022-10-23T08:45:11.397Z,15.37
2022-10-23T08:49:28.700Z,15.45
2022-10-23T08:53:59.712Z,15.43
2022-10-23T08:58:07.641Z,15.48
2022-10-23T09:02:09.927Z,15.59
2022-10-23T09:06:30.863Z,15.67
2022-10-23T09:10:49.321Z,15.59
2022-10-23T09:15:07.097Z,15.56
2022-10-23T09:19:19.616Z,15.57
2022-10-23T09:23:23.728Z,15.66
2022-10-23T09:27:25.786Z,15.80
2022-10-23T09:31:27.769Z,15.88
2022-10-23T09:35:30.625Z,15.97
2022-10-23T09:39:35.320Z,16.06
2022-10-23T09:43:37.525Z,16.10
2022-10-23T09:47:41.803Z,16.12
2022-10-23T09:52:10.177Z,16.03
2022-10-23T09:56:39.915Z,16.01
2022-10-23T10:00:48.057Z,15.99
2022-10-23T10:04:51.227Z,16.03
2022-10-23T10:08:56.827Z,16.07
2022-10-23T10:13:13.003Z,16.13
2022-10-23T10:17:35.497Z,16.34
2022-10-23T10:21:56.454Z,16.54
2022-10-23T10:26:16.215Z,16.73
2022-10-23T10:30:21.192Z,16.98
2022-10-23T10:34:30.211Z,17.04
2022-10-23T10:38:50.246Z,17.03
2022-10-23T10:43:35.513Z,17.01
2022-10-23T10:48:19.205Z,17.02
2022-10-23T10:53:10.256Z,17.04
2022-10-23T10:57:32.025Z,17.18
2022-10-23T11:01:42.935Z,17.30
2022-10-23T11:05:49.010Z,17.40
2022-10-23T11:09:52.259Z,17.49
2022-10-23T11:13:54.432Z,17.37
2022-10-23T11:18:06.768Z,17.26
2022-10-23T11:22:36.519Z,17.19
2022-10-23T11:27:26.395Z,17.20
2022-10-23T11:32:02.137Z,16.99
2022-10-23T11:36:16.451Z,16.75
2022-10-23T11:40:23.927Z,16.64
2022-10-23T11:44:38.086Z,16.59
2022-10-23T11:48:43.147Z,16.77
2022-10-23T11:53:20.876Z,16.88
2022-10-23T11:57:23.385Z,16.78
2022-10-23T12:01:36.240Z,16.60
2022-10-23T12:05:42.078Z,16.58
2022-10-23T12:09:46.674Z,16.81
2022-10-23T12:13:48.819Z,16.98
2022-10-23T12:17:54.243Z,17.05
2022-10-23T12:22:03.515Z,17.20
2022-10-23T12:26:16.794Z,17.16
2022-10-23T12:30:34.113Z,17.30
2022-10-23T12:34:54.271Z,17.65
2022-10-23T12:38:58.565Z,18.03
2022-10-23T12:43:01.218Z,18.28
2022-10-23T12:47:04.274Z,18.39
2022-10-23T12:51:06.365Z,18.48
2022-10-23T12:55:13.781Z,18.36
2022-10-23T12:59:27.003Z,18.39
2022-10-23T13:03:30.704Z,18.29
2022-10-23T13:07:37.474Z,18.27
2022-10-23T13:11:41.457Z,18.30
2022-10-23T13:15:46.679Z,18.36
2022-10-23T13:19:48.658Z,18.35
2022-10-23T13:23:53.048Z,18.31
2022-10-23T13:28:19.716Z,18.33
2022-10-23T13:32:24.509Z,18.26
2022-10-23T13:36:32.222Z,18.23
2022-10-23T13:40:35.809Z,18.14
2022-10-23T13:44:38.510Z,18.01
2022-10-23T13:48:40.507Z,17.97
2022-10-23T13:52:42.653Z,18.00
2022-10-23T13:56:44.690Z,18.05
2022-10-23T14:00:49.215Z,18.09
2022-10-23T14:04:51.548Z,18.08
2022-10-23T14:08:53.535Z,18.05
2022-10-23T14:12:55.519Z,18.05
2022-10-23T14:16:57.500Z,18.06
2022-10-23T14:21:03.947Z,18.06
2022-10-23T14:25:06.154Z,18.05
2022-10-23T14:29:10.847Z,18.07
2022-10-23T14:33:16.663Z,18.10
2022-10-23T14:37:19.505Z,18.13
2022-10-23T14:41:21.507Z,18.12
2022-10-23T14:45:24.177Z,18.12
2022-10-23T14:49:26.132Z,18.08
2022-10-23T14:53:28.103Z,18.02
2022-10-23T14:57:30.078Z,17.97
2022-10-23T15:01:42.280Z,17.89
2022-10-23T15:05:47.736Z,17.81
2022-10-23T15:09:51.767Z,17.74
2022-10-23T15:13:54.701Z,17.71
2022-10-23T15:17:56.963Z,17.67
2022-10-23T15:21:59.092Z,17.52
2022-10-23T15:26:05.490Z,17.39
2022-10-23T15:30:08.046Z,17.27
2022-10-23T15:34:12.920Z,17.18
2022-10-23T15:38:15.434Z,17.20
2022-10-23T15:42:18.951Z,17.16
2022-10-23T15:46:21.016Z,17.17
2022-10-23T15:50:23.242Z,17.14
2022-10-23T15:54:28.129Z,17.15
2022-10-23T15:58:32.734Z,17.07
2022-10-23T16:02:34.895Z,17.03
2022-10-23T16:06:37.272Z,16.96
2022-10-23T16:10:40.519Z,16.87
2022-10-23T16:14:42.654Z,16.74
2022-10-23T16:18:45.445Z,16.71
2022-10-23T16:22:47.695Z,16.69
2022-10-23T16:26:53.042Z,16.69
2022-10-23T16:30:55.157Z,16.65
2022-10-23T16:34:57.148Z,16.65
2022-10-23T16:39:01.153Z,16.63
2022-10-23T16:43:21.540Z,16.60
2022-10-23T16:47:33.357Z,16.52
2022-10-23T16:51:35.655Z,16.43
2022-10-23T16:55:40.609Z,16.40
2022-10-23T16:59:42.721Z,16.34
2022-10-23T17:03:48.185Z,16.28
2022-10-23T17:07:50.295Z,16.32
2022-10-23T17:11:54.011Z,16.35
2022-10-23T17:16:07.769Z,16.36
2022-10-23T17:20:10.486Z,16.32
2022-10-23T17:24:13.306Z,16.28
2022-10-23T17:28:15.386Z,16.24
2022-10-23T17:32:17.469Z,16.25
2022-10-23T17:36:21.479Z,16.26
2022-10-23T17:40:25.149Z,16.26
2022-10-23T17:44:29.044Z,16.22
2022-10-23T17:48:31.280Z,16.26
2022-10-23T17:52:33.274Z,16.31
2022-10-23T17:56:37.545Z,16.41
2022-10-23T18:00:39.528Z,16.52
2022-10-23T18:04:41.580Z,16.60
2022-10-23T18:08:44.361Z,16.69
2022-10-23T18:12:46.375Z,16.79
2022-10-23T18:16:48.910Z,16.75
2022-10-23T18:20:50.895Z,16.66
2022-10-23T18:24:52.984Z,16.57
2022-10-23T18:28:58.154Z,16.52
2022-10-23T18:33:00.241Z,16.45
2022-10-23T18:37:02.243Z,16.45
2022-10-23T18:41:04.290Z,16.44
2022-10-23T18:45:06.863Z,16.45
2022-10-23T18:49:09.429Z,16.46
2022-10-23T18:53:11.423Z,16.50
2022-10-23T18:57:13.424Z,16.55
2022-10-23T19:01:15.600Z,16.59
2022-10-23T19:05:17.692Z,16.59
2022-10-23T19:09:20.388Z,16.53
2022-10-23T19:13:22.424Z,16.47
2022-10-23T19:17:31.851Z,16.42
2022-10-23T19:21:38.170Z,16.40
2022-10-23T19:25:40.284Z,16.36
2022-10-23T19:29:46.551Z,16.32
2022-10-23T19:33:48.900Z,16.23
2022-10-23T19:37:50.904Z,16.15
2022-10-23T19:41:53.977Z,16.06
2022-10-23T19:45:56.026Z,15.99
2022-10-23T19:49:58.041Z,15.99
2022-10-23T19:54:00.297Z,16.01
2022-10-23T19:58:02.387Z,16.06
2022-10-23T20:02:04.585Z,16.08
2022-10-23T20:06:15.075Z,16.13
2022-10-23T20:10:17.167Z,16.16
2022-10-23T20:14:19.445Z,16.15
2022-10-23T20:18:21.427Z,16.15
2022-10-23T20:22:23.644Z,16.15
2022-10-23T20:26:25.770Z,16.16
2022-10-23T20:30:27.866Z,16.15
2022-10-23T20:34:29.987Z,16.15
2022-10-23T20:38:31.975Z,16.18
2022-10-23T20:42:34.019Z,16.19
2022-10-23T20:46:36.170Z,16.18
2022-10-23T20:50:38.255Z,16.17
2022-10-23T20:54:40.511Z,16.16
2022-10-23T20:58:42.986Z,16.21
2022-10-23T21:02:47.197Z,16.24
2022-10-23T21:07:11.779Z,16.23
2022-10-23T21:11:16.312Z,16.15
2022-10-23T21:15:18.402Z,16.12
2022-10-23T21:19:20.465Z,16.06
2022-10-23T21:23:22.524Z,15.98
2022-10-23T21:27:24.614Z,15.91
2022-10-23T21:31:26.629Z,15.88
2022-10-23T21:35:30.021Z,15.88
2022-10-23T21:39:32.378Z,15.91
2022-10-23T21:43:34.983Z,15.89
2022-10-23T21:47:37.343Z,15.86
2022-10-23T21:51:40.382Z,15.84
2022-10-23T21:55:42.414Z,15.78
2022-10-23T21:59:44.448Z,15.74
2022-10-23T22:03:46.512Z,16.03
2022-10-23T22:07:48.555Z,16.07
2022-10-23T22:11:53.011Z,15.99
2022-10-23T22:15:55.099Z,16.01
2022-10-23T22:19:57.084Z,15.98
2022-10-23T22:24:00.327Z,15.90
2022-10-23T22:28:02.423Z,15.81
2022-10-23T22:32:04.637Z,15.76
2022-10-23T22:36:06.877Z,15.67
2022-10-23T22:40:09.444Z,15.61
2022-10-23T22:44:12.117Z,15.53
2022-10-23T22:48:14.117Z,15.45
2022-10-23T22:52:16.131Z,15.39
2022-10-23T22:56:21.572Z,15.34
2022-10-23T23:00:23.700Z,15.31
2022-10-23T23:04:42.548Z,15.27
2022-10-23T23:08:45.352Z,15.25
2022-10-23T23:12:50.369Z,15.23
2022-10-23T23:16:53.113Z,15.21
2022-10-23T23:20:59.807Z,15.21
2022-10-23T23:25:01.859Z,15.20
2022-10-23T23:29:03.834Z,15.18
2022-10-23T23:33:05.910Z,15.18
2022-10-23T23:37:07.918Z,15.13
2022-10-23T23:41:13.860Z,15.10
2022-10-23T23:45:15.930Z,15.08
2022-10-23T23:49:17.938Z,15.07
2022-10-23T23:53:19.976Z,15.06
2022-10-23T23:57:22.056Z,15.03
